sensor_id;sensor_type;location;lat;lon;timestamp;P1;durP1;ratioP1;P2;durP2;ratioP2
51612;SDS011;37694;51.748;14.326;2023-01-28T00:00:03;4.90;;;2.70;;
51612;SDS011;37694;51.748;14.326;2023-01-28T00:02:31;2.20;;;1.98;;
51612;SDS011;37694;51.748;14.326;2023-01-28T00:05:00;3.10;;;2.80;;
51612;SDS011;37694;51.748;14.326;2023-01-28T00:07:26;3.03;;;2.47;;
51612;SDS011;37694;51.748;14.326;2023-01-28T00:09:52;3.78;;;2.20;;
51612;SDS011;37694;51.748;14.326;2023-01-28T00:12:18;5.45;;;2.28;;
51612;SDS011;37694;51.748;14.326;2023-01-28T00:14:43;10.30;;;2.38;;
51612;SDS011;37694;51.748;14.326;2023-01-28T00:17:11;3.95;;;2.80;;
51612;SDS011;37694;51.748;14.326;2023-01-28T00:19:37;4.80;;;2.50;;
51612;SDS011;37694;51.748;14.326;2023-01-28T00:22:03;3.50;;;2.65;;
51612;SDS011;37694;51.748;14.326;2023-01-28T00:24:29;5.13;;;3.03;;
51612;SDS011;37694;51.748;14.326;2023-01-28T00:26:56;5.18;;;2.63;;
51612;SDS011;37694;51.748;14.326;2023-01-28T00:29:22;6.35;;;2.97;;
51612;SDS011;37694;51.748;14.326;2023-01-28T00:31:47;5.13;;;2.42;;
51612;SDS011;37694;51.748;14.326;2023-01-28T00:34:13;5.22;;;2.80;;
51612;SDS011;37694;51.748;14.326;2023-01-28T00:36:39;4.90;;;2.65;;
51612;SDS011;37694;51.748;14.326;2023-01-28T00:39:06;4.55;;;2.60;;
51612;SDS011;37694;51.748;14.326;2023-01-28T00:41:37;4.68;;;2.50;;
51612;SDS011;37694;51.748;14.326;2023-01-28T00:44:03;5.35;;;3.22;;
51612;SDS011;37694;51.748;14.326;2023-01-28T00:46:29;5.43;;;2.83;;
51612;SDS011;37694;51.748;14.326;2023-01-28T00:48:55;2.75;;;2.45;;
51612;SDS011;37694;51.748;14.326;2023-01-28T00:51:20;4.95;;;3.03;;
51612;SDS011;37694;51.748;14.326;2023-01-28T00:53:47;4.45;;;2.67;;
51612;SDS011;37694;51.748;14.326;2023-01-28T00:56:14;3.95;;;2.40;;
51612;SDS011;37694;51.748;14.326;2023-01-28T00:58:41;4.28;;;2.70;;
51612;SDS011;37694;51.748;14.326;2023-01-28T01:03:37;5.20;;;3.05;;
51612;SDS011;37694;51.748;14.326;2023-01-28T01:06:03;3.65;;;2.55;;
51612;SDS011;37694;51.748;14.326;2023-01-28T01:08:30;4.10;;;3.00;;
51612;SDS011;37694;51.748;14.326;2023-01-28T01:11:07;5.90;;;3.17;;
51612;SDS011;37694;51.748;14.326;2023-01-28T01:13:35;2.58;;;2.38;;
51612;SDS011;37694;51.748;14.326;2023-01-28T01:18:35;5.03;;;2.97;;
51612;SDS011;37694;51.748;14.326;2023-01-28T01:21:15;4.18;;;2.70;;
51612;SDS011;37694;51.748;14.326;2023-01-28T01:23:43;2.90;;;2.53;;
51612;SDS011;37694;51.748;14.326;2023-01-28T01:26:09;2.88;;;2.58;;
51612;SDS011;37694;51.748;14.326;2023-01-28T01:28:35;4.35;;;2.88;;
51612;SDS011;37694;51.748;14.326;2023-01-28T01:31:05;3.40;;;3.08;;
51612;SDS011;37694;51.748;14.326;2023-01-28T01:33:37;4.53;;;2.83;;
51612;SDS011;37694;51.748;14.326;2023-01-28T01:36:04;4.40;;;3.13;;
51612;SDS011;37694;51.748;14.326;2023-01-28T01:38:30;3.30;;;2.97;;
51612;SDS011;37694;51.748;14.326;2023-01-28T01:40:56;3.92;;;2.95;;
51612;SDS011;37694;51.748;14.326;2023-01-28T01:43:24;3.10;;;2.72;;
51612;SDS011;37694;51.748;14.326;2023-01-28T01:45:57;4.20;;;3.05;;
51612;SDS011;37694;51.748;14.326;2023-01-28T01:48:29;4.28;;;2.50;;
51612;SDS011;37694;51.748;14.326;2023-01-28T01:51:00;3.42;;;2.70;;
51612;SDS011;37694;51.748;14.326;2023-01-28T01:53:27;3.92;;;2.90;;
51612;SDS011;37694;51.748;14.326;2023-01-28T01:55:56;3.42;;;2.63;;
51612;SDS011;37694;51.748;14.326;2023-01-28T01:58:27;2.85;;;2.65;;
51612;SDS011;37694;51.748;14.326;2023-01-28T02:00:55;4.20;;;2.75;;
51612;SDS011;37694;51.748;14.326;2023-01-28T02:03:24;4.05;;;2.63;;
51612;SDS011;37694;51.748;14.326;2023-01-28T02:05:55;4.15;;;3.00;;
51612;SDS011;37694;51.748;14.326;2023-01-28T02:08:21;3.45;;;2.78;;
51612;SDS011;37694;51.748;14.326;2023-01-28T02:10:48;4.00;;;2.65;;
51612;SDS011;37694;51.748;14.326;2023-01-28T02:13:27;5.63;;;3.13;;
51612;SDS011;37694;51.748;14.326;2023-01-28T02:16:06;2.80;;;2.60;;
51612;SDS011;37694;51.748;14.326;2023-01-28T02:18:33;7.60;;;3.00;;
51612;SDS011;37694;51.748;14.326;2023-01-28T02:29:15;3.28;;;2.70;;
51612;SDS011;37694;51.748;14.326;2023-01-28T02:31:51;3.45;;;2.60;;
51612;SDS011;37694;51.748;14.326;2023-01-28T02:40:06;2.65;;;2.35;;
51612;SDS011;37694;51.748;14.326;2023-01-28T02:42:44;8.02;;;2.90;;
51612;SDS011;37694;51.748;14.326;2023-01-28T02:45:23;3.17;;;2.83;;
51612;SDS011;37694;51.748;14.326;2023-01-28T02:47:49;3.17;;;2.60;;
51612;SDS011;37694;51.748;14.326;2023-01-28T02:50:22;3.50;;;2.70;;
51612;SDS011;37694;51.748;14.326;2023-01-28T02:53:00;5.30;;;2.70;;
51612;SDS011;37694;51.748;14.326;2023-01-28T02:59:02;3.55;;;2.65;;
51612;SDS011;37694;51.748;14.326;2023-01-28T03:04:59;7.20;;;3.10;;
51612;SDS011;37694;51.748;14.326;2023-01-28T03:07:33;7.20;;;3.00;;
51612;SDS011;37694;51.748;14.326;2023-01-28T03:10:03;6.95;;;3.30;;
51612;SDS011;37694;51.748;14.326;2023-01-28T03:12:31;6.80;;;3.00;;
51612;SDS011;37694;51.748;14.326;2023-01-28T03:15:19;2.50;;;2.30;;
51612;SDS011;37694;51.748;14.326;2023-01-28T03:18:43;4.05;;;2.75;;
51612;SDS011;37694;51.748;14.326;2023-01-28T03:21:37;3.30;;;2.55;;
51612;SDS011;37694;51.748;14.326;2023-01-28T03:24:27;2.80;;;2.50;;
51612;SDS011;37694;51.748;14.326;2023-01-28T03:27:21;3.58;;;2.70;;
51612;SDS011;37694;51.748;14.326;2023-01-28T03:30:16;3.90;;;2.40;;
51612;SDS011;37694;51.748;14.326;2023-01-28T03:33:12;4.57;;;2.42;;
51612;SDS011;37694;51.748;14.326;2023-01-28T03:35:59;3.28;;;2.40;;
51612;SDS011;37694;51.748;14.326;2023-01-28T03:38:44;3.50;;;3.13;;
51612;SDS011;37694;51.748;14.326;2023-01-28T03:41:18;3.63;;;2.42;;
51612;SDS011;37694;51.748;14.326;2023-01-28T03:43:46;9.70;;;2.70;;
51612;SDS011;37694;51.748;14.326;2023-01-28T03:46:12;3.95;;;2.63;;
51612;SDS011;37694;51.748;14.326;2023-01-28T03:48:38;5.20;;;2.60;;
51612;SDS011;37694;51.748;14.326;2023-01-28T03:51:04;5.65;;;2.50;;
51612;SDS011;37694;51.748;14.326;2023-01-28T03:53:30;4.15;;;2.72;;
51612;SDS011;37694;51.748;14.326;2023-01-28T03:55:55;3.28;;;2.40;;
51612;SDS011;37694;51.748;14.326;2023-01-28T03:58:21;2.60;;;2.40;;
51612;SDS011;37694;51.748;14.326;2023-01-28T04:00:51;2.90;;;2.50;;
51612;SDS011;37694;51.748;14.326;2023-01-28T04:03:17;3.45;;;2.97;;
51612;SDS011;37694;51.748;14.326;2023-01-28T04:05:45;3.58;;;2.50;;
51612;SDS011;37694;51.748;14.326;2023-01-28T04:08:21;4.85;;;2.53;;
51612;SDS011;37694;51.748;14.326;2023-01-28T04:10:47;3.17;;;2.67;;
51612;SDS011;37694;51.748;14.326;2023-01-28T04:13:13;4.35;;;3.03;;
51612;SDS011;37694;51.748;14.326;2023-01-28T04:15:39;3.88;;;2.40;;
51612;SDS011;37694;51.748;14.326;2023-01-28T04:18:07;2.95;;;2.50;;
51612;SDS011;37694;51.748;14.326;2023-01-28T04:20:33;2.85;;;2.28;;
51612;SDS011;37694;51.748;14.326;2023-01-28T04:22:59;3.65;;;2.33;;
51612;SDS011;37694;51.748;14.326;2023-01-28T04:25:25;3.88;;;2.90;;
51612;SDS011;37694;51.748;14.326;2023-01-28T04:27:50;4.03;;;2.35;;
51612;SDS011;37694;51.748;14.326;2023-01-28T04:30:16;3.60;;;2.78;;
51612;SDS011;37694;51.748;14.326;2023-01-28T04:32:42;3.28;;;2.65;;
51612;SDS011;37694;51.748;14.326;2023-01-28T04:35:10;3.28;;;2.58;;
51612;SDS011;37694;51.748;14.326;2023-01-28T04:37:36;3.42;;;2.63;;
51612;SDS011;37694;51.748;14.326;2023-01-28T04:40:02;5.60;;;2.90;;
51612;SDS011;37694;51.748;14.326;2023-01-28T04:42:28;5.65;;;2.42;;
51612;SDS011;37694;51.748;14.326;2023-01-28T04:44:54;4.65;;;2.55;;
51612;SDS011;37694;51.748;14.326;2023-01-28T04:47:19;3.63;;;2.42;;
51612;SDS011;37694;51.748;14.326;2023-01-28T04:49:45;2.53;;;2.25;;
51612;SDS011;37694;51.748;14.326;2023-01-28T04:52:11;5.40;;;2.72;;
51612;SDS011;37694;51.748;14.326;2023-01-28T04:54:36;2.20;;;2.00;;
51612;SDS011;37694;51.748;14.326;2023-01-28T04:57:02;3.13;;;2.40;;
51612;SDS011;37694;51.748;14.326;2023-01-28T04:59:28;4.55;;;2.53;;
51612;SDS011;37694;51.748;14.326;2023-01-28T05:01:53;4.00;;;2.55;;
51612;SDS011;37694;51.748;14.326;2023-01-28T05:04:19;4.85;;;2.40;;
51612;SDS011;37694;51.748;14.326;2023-01-28T05:06:45;3.92;;;2.53;;
51612;SDS011;37694;51.748;14.326;2023-01-28T05:09:10;3.60;;;2.55;;
51612;SDS011;37694;51.748;14.326;2023-01-28T05:11:36;3.22;;;2.50;;
51612;SDS011;37694;51.748;14.326;2023-01-28T05:14:02;3.72;;;2.22;;
51612;SDS011;37694;51.748;14.326;2023-01-28T05:16:27;2.53;;;2.13;;
51612;SDS011;37694;51.748;14.326;2023-01-28T05:18:53;2.97;;;2.40;;
51612;SDS011;37694;51.748;14.326;2023-01-28T05:21:19;2.60;;;2.20;;
51612;SDS011;37694;51.748;14.326;2023-01-28T05:23:45;3.08;;;2.05;;
51612;SDS011;37694;51.748;14.326;2023-01-28T05:26:10;2.83;;;2.50;;
51612;SDS011;37694;51.748;14.326;2023-01-28T05:28:36;4.28;;;2.97;;
51612;SDS011;37694;51.748;14.326;2023-01-28T05:31:02;2.97;;;2.65;;
51612;SDS011;37694;51.748;14.326;2023-01-28T05:33:31;3.13;;;2.45;;
51612;SDS011;37694;51.748;14.326;2023-01-28T05:35:57;3.00;;;2.20;;
51612;SDS011;37694;51.748;14.326;2023-01-28T05:38:23;3.65;;;2.53;;
51612;SDS011;37694;51.748;14.326;2023-01-28T05:40:49;3.47;;;2.33;;
51612;SDS011;37694;51.748;14.326;2023-01-28T05:43:15;2.85;;;2.10;;
51612;SDS011;37694;51.748;14.326;2023-01-28T05:45:40;3.45;;;2.17;;
51612;SDS011;37694;51.748;14.326;2023-01-28T05:48:06;2.42;;;2.15;;
51612;SDS011;37694;51.748;14.326;2023-01-28T05:50:32;2.80;;;2.25;;
51612;SDS011;37694;51.748;14.326;2023-01-28T05:52:58;3.88;;;2.10;;
51612;SDS011;37694;51.748;14.326;2023-01-28T05:55:23;5.20;;;2.67;;
51612;SDS011;37694;51.748;14.326;2023-01-28T05:57:49;4.05;;;2.58;;
51612;SDS011;37694;51.748;14.326;2023-01-28T06:00:16;3.70;;;2.42;;
51612;SDS011;37694;51.748;14.326;2023-01-28T06:02:42;2.00;;;1.80;;
51612;SDS011;37694;51.748;14.326;2023-01-28T06:05:07;2.63;;;2.05;;
51612;SDS011;37694;51.748;14.326;2023-01-28T06:07:33;2.65;;;1.85;;
51612;SDS011;37694;51.748;14.326;2023-01-28T06:09:59;3.25;;;2.65;;
51612;SDS011;37694;51.748;14.326;2023-01-28T06:12:25;2.83;;;1.75;;
51612;SDS011;37694;51.748;14.326;2023-01-28T06:14:50;4.05;;;2.20;;
51612;SDS011;37694;51.748;14.326;2023-01-28T06:17:16;3.25;;;2.30;;
51612;SDS011;37694;51.748;14.326;2023-01-28T06:19:42;3.63;;;2.30;;
51612;SDS011;37694;51.748;14.326;2023-01-28T06:22:08;2.78;;;2.45;;
51612;SDS011;37694;51.748;14.326;2023-01-28T06:24:34;5.55;;;2.55;;
51612;SDS011;37694;51.748;14.326;2023-01-28T06:27:00;3.58;;;2.40;;
51612;SDS011;37694;51.748;14.326;2023-01-28T06:29:25;7.72;;;2.25;;
51612;SDS011;37694;51.748;14.326;2023-01-28T06:31:51;7.72;;;2.85;;
51612;SDS011;37694;51.748;14.326;2023-01-28T06:34:17;3.03;;;2.33;;
51612;SDS011;37694;51.748;14.326;2023-01-28T06:36:43;6.57;;;2.42;;
51612;SDS011;37694;51.748;14.326;2023-01-28T06:39:09;4.38;;;1.98;;
51612;SDS011;37694;51.748;14.326;2023-01-28T06:41:35;2.40;;;2.00;;
51612;SDS011;37694;51.748;14.326;2023-01-28T06:44:01;7.13;;;2.00;;
51612;SDS011;37694;51.748;14.326;2023-01-28T06:46:26;5.75;;;2.00;;
51612;SDS011;37694;51.748;14.326;2023-01-28T06:48:52;6.90;;;2.45;;
51612;SDS011;37694;51.748;14.326;2023-01-28T06:51:18;9.35;;;2.40;;
51612;SDS011;37694;51.748;14.326;2023-01-28T06:53:44;2.47;;;2.22;;
51612;SDS011;37694;51.748;14.326;2023-01-28T06:56:09;5.32;;;2.40;;
51612;SDS011;37694;51.748;14.326;2023-01-28T06:58:35;6.18;;;2.53;;
51612;SDS011;37694;51.748;14.326;2023-01-28T07:01:01;3.47;;;2.50;;
51612;SDS011;37694;51.748;14.326;2023-01-28T07:03:27;3.28;;;2.75;;
51612;SDS011;37694;51.748;14.326;2023-01-28T07:05:53;3.65;;;2.60;;
51612;SDS011;37694;51.748;14.326;2023-01-28T07:08:19;8.43;;;3.65;;
51612;SDS011;37694;51.748;14.326;2023-01-28T07:10:44;3.85;;;2.80;;
51612;SDS011;37694;51.748;14.326;2023-01-28T07:13:10;3.75;;;2.88;;
51612;SDS011;37694;51.748;14.326;2023-01-28T07:15:36;9.90;;;3.33;;
51612;SDS011;37694;51.748;14.326;2023-01-28T07:18:02;24.67;;;3.10;;
51612;SDS011;37694;51.748;14.326;2023-01-28T07:20:27;10.43;;;3.53;;
51612;SDS011;37694;51.748;14.326;2023-01-28T07:22:53;9.15;;;4.40;;
51612;SDS011;37694;51.748;14.326;2023-01-28T07:25:19;11.48;;;3.75;;
51612;SDS011;37694;51.748;14.326;2023-01-28T07:27:45;9.98;;;3.65;;
51612;SDS011;37694;51.748;14.326;2023-01-28T07:30:15;15.65;;;4.55;;
51612;SDS011;37694;51.748;14.326;2023-01-28T07:32:42;13.25;;;3.85;;
51612;SDS011;37694;51.748;14.326;2023-01-28T07:35:08;10.60;;;3.22;;
51612;SDS011;37694;51.748;14.326;2023-01-28T07:37:34;3.65;;;3.22;;
51612;SDS011;37694;51.748;14.326;2023-01-28T07:39:59;9.20;;;3.53;;
51612;SDS011;37694;51.748;14.326;2023-01-28T07:42:25;11.75;;;3.08;;
51612;SDS011;37694;51.748;14.326;2023-01-28T07:44:51;5.63;;;3.10;;
51612;SDS011;37694;51.748;14.326;2023-01-28T07:47:17;9.88;;;2.80;;
51612;SDS011;37694;51.748;14.326;2023-01-28T07:49:43;11.77;;;2.88;;
51612;SDS011;37694;51.748;14.326;2023-01-28T07:52:09;8.48;;;2.85;;
51612;SDS011;37694;51.748;14.326;2023-01-28T07:54:35;6.63;;;2.30;;
51612;SDS011;37694;51.748;14.326;2023-01-28T07:57:01;6.38;;;2.53;;
51612;SDS011;37694;51.748;14.326;2023-01-28T07:59:26;5.93;;;2.45;;
51612;SDS011;37694;51.748;14.326;2023-01-28T08:01:52;6.28;;;2.25;;
51612;SDS011;37694;51.748;14.326;2023-01-28T08:04:18;3.95;;;1.73;;
51612;SDS011;37694;51.748;14.326;2023-01-28T08:06:44;8.80;;;2.08;;
51612;SDS011;37694;51.748;14.326;2023-01-28T08:09:10;4.75;;;1.92;;
51612;SDS011;37694;51.748;14.326;2023-01-28T08:11:39;4.68;;;1.90;;
51612;SDS011;37694;51.748;14.326;2023-01-28T08:14:04;3.05;;;1.60;;
51612;SDS011;37694;51.748;14.326;2023-01-28T08:16:30;6.78;;;1.50;;
51612;SDS011;37694;51.748;14.326;2023-01-28T08:18:56;8.15;;;1.83;;
51612;SDS011;37694;51.748;14.326;2023-01-28T08:21:22;6.18;;;1.40;;
51612;SDS011;37694;51.748;14.326;2023-01-28T08:23:48;3.38;;;1.40;;
51612;SDS011;37694;51.748;14.326;2023-01-28T08:26:14;6.97;;;1.88;;
51612;SDS011;37694;51.748;14.326;2023-01-28T08:28:39;4.28;;;1.67;;
51612;SDS011;37694;51.748;14.326;2023-01-28T08:31:05;2.90;;;1.10;;
51612;SDS011;37694;51.748;14.326;2023-01-28T08:33:31;7.93;;;1.67;;
51612;SDS011;37694;51.748;14.326;2023-01-28T08:35:56;3.65;;;1.42;;
51612;SDS011;37694;51.748;14.326;2023-01-28T08:38:22;12.38;;;1.90;;
51612;SDS011;37694;51.748;14.326;2023-01-28T08:40:48;8.88;;;2.05;;
51612;SDS011;37694;51.748;14.326;2023-01-28T08:43:14;5.10;;;1.45;;
51612;SDS011;37694;51.748;14.326;2023-01-28T08:45:40;7.15;;;1.75;;
51612;SDS011;37694;51.748;14.326;2023-01-28T08:48:07;1.98;;;1.10;;
51612;SDS011;37694;51.748;14.326;2023-01-28T08:50:36;8.57;;;1.70;;
51612;SDS011;37694;51.748;14.326;2023-01-28T08:53:04;13.18;;;1.83;;
51612;SDS011;37694;51.748;14.326;2023-01-28T08:55:32;12.18;;;1.75;;
51612;SDS011;37694;51.748;14.326;2023-01-28T08:58:00;6.28;;;1.60;;
51612;SDS011;37694;51.748;14.326;2023-01-28T09:00:27;15.70;;;2.80;;
51612;SDS011;37694;51.748;14.326;2023-01-28T09:02:53;5.65;;;1.60;;
51612;SDS011;37694;51.748;14.326;2023-01-28T09:05:18;15.82;;;2.45;;
51612;SDS011;37694;51.748;14.326;2023-01-28T09:07:45;5.07;;;1.33;;
51612;SDS011;37694;51.748;14.326;2023-01-28T09:10:11;3.35;;;1.20;;
51612;SDS011;37694;51.748;14.326;2023-01-28T09:12:37;4.80;;;1.40;;
51612;SDS011;37694;51.748;14.326;2023-01-28T09:15:03;5.75;;;1.30;;
51612;SDS011;37694;51.748;14.326;2023-01-28T09:17:30;49.83;;;10.90;;
51612;SDS011;37694;51.748;14.326;2023-01-28T09:19:55;85.28;;;18.85;;
51612;SDS011;37694;51.748;14.326;2023-01-28T09:22:21;122.50;;;23.63;;
51612;SDS011;37694;51.748;14.326;2023-01-28T09:24:47;80.47;;;17.50;;
51612;SDS011;37694;51.748;14.326;2023-01-28T09:27:13;61.10;;;15.32;;
51612;SDS011;37694;51.748;14.326;2023-01-28T09:29:38;61.22;;;13.52;;
51612;SDS011;37694;51.748;14.326;2023-01-28T09:32:05;45.80;;;12.98;;
51612;SDS011;37694;51.748;14.326;2023-01-28T09:34:33;49.67;;;11.98;;
51612;SDS011;37694;51.748;14.326;2023-01-28T09:36:59;37.17;;;9.75;;
51612;SDS011;37694;51.748;14.326;2023-01-28T09:39:25;32.63;;;7.80;;
51612;SDS011;37694;51.748;14.326;2023-01-28T09:47:38;23.15;;;5.40;;
51612;SDS011;37694;51.748;14.326;2023-01-28T09:50:10;25.95;;;4.95;;
51612;SDS011;37694;51.748;14.326;2023-01-28T09:52:40;18.07;;;4.30;;
51612;SDS011;37694;51.748;14.326;2023-01-28T09:55:12;12.07;;;4.10;;
51612;SDS011;37694;51.748;14.326;2023-01-28T09:57:51;7.45;;;3.53;;
51612;SDS011;37694;51.748;14.326;2023-01-28T10:00:29;10.07;;;3.17;;
51612;SDS011;37694;51.748;14.326;2023-01-28T10:17:26;5.30;;;1.92;;
51612;SDS011;37694;51.748;14.326;2023-01-28T10:20:06;2.75;;;1.30;;
51612;SDS011;37694;51.748;14.326;2023-01-28T10:22:36;1.55;;;1.13;;
51612;SDS011;37694;51.748;14.326;2023-01-28T10:25:16;1.17;;;0.98;;
51612;SDS011;37694;51.748;14.326;2023-01-28T10:27:44;1.42;;;1.10;;
51612;SDS011;37694;51.748;14.326;2023-01-28T10:32:52;1.73;;;1.23;;
51612;SDS011;37694;51.748;14.326;2023-01-28T10:35:44;1.65;;;1.13;;
51612;SDS011;37694;51.748;14.326;2023-01-28T10:38:12;2.22;;;1.10;;
51612;SDS011;37694;51.748;14.326;2023-01-28T10:40:40;3.42;;;1.27;;
51612;SDS011;37694;51.748;14.326;2023-01-28T10:43:06;2.90;;;1.23;;
51612;SDS011;37694;51.748;14.326;2023-01-28T10:45:36;2.30;;;1.27;;
51612;SDS011;37694;51.748;14.326;2023-01-28T10:48:35;1.40;;;1.30;;
51612;SDS011;37694;51.748;14.326;2023-01-28T10:51:08;3.13;;;1.70;;
51612;SDS011;37694;51.748;14.326;2023-01-28T10:53:38;1.55;;;1.20;;
51612;SDS011;37694;51.748;14.326;2023-01-28T10:56:10;2.45;;;1.50;;
51612;SDS011;37694;51.748;14.326;2023-01-28T10:58:49;3.88;;;1.30;;
51612;SDS011;37694;51.748;14.326;2023-01-28T11:01:23;4.50;;;1.48;;
51612;SDS011;37694;51.748;14.326;2023-01-28T11:03:57;2.33;;;1.48;;
51612;SDS011;37694;51.748;14.326;2023-01-28T11:06:24;2.00;;;1.38;;
51612;SDS011;37694;51.748;14.326;2023-01-28T11:08:51;3.00;;;1.38;;
51612;SDS011;37694;51.748;14.326;2023-01-28T11:11:22;2.17;;;1.30;;
51612;SDS011;37694;51.748;14.326;2023-01-28T11:13:53;1.63;;;1.10;;
51612;SDS011;37694;51.748;14.326;2023-01-28T11:16:22;2.85;;;1.42;;
51612;SDS011;37694;51.748;14.326;2023-01-28T11:18:52;11.20;;;2.05;;
51612;SDS011;37694;51.748;14.326;2023-01-28T11:21:27;3.80;;;1.90;;
51612;SDS011;37694;51.748;14.326;2023-01-28T11:26:24;3.28;;;1.20;;
51612;SDS011;37694;51.748;14.326;2023-01-28T11:28:53;1.55;;;0.80;;
51612;SDS011;37694;51.748;14.326;2023-01-28T11:31:20;4.97;;;1.05;;
51612;SDS011;37694;51.748;14.326;2023-01-28T11:33:52;4.65;;;1.38;;
51612;SDS011;37694;51.748;14.326;2023-01-28T11:36:24;1.75;;;0.82;;
51612;SDS011;37694;51.748;14.326;2023-01-28T11:38:58;1.27;;;0.90;;
51612;SDS011;37694;51.748;14.326;2023-01-28T11:41:40;1.20;;;1.08;;
51612;SDS011;37694;51.748;14.326;2023-01-28T11:49:25;4.65;;;0.95;;
51612;SDS011;37694;51.748;14.326;2023-01-28T12:05:07;5.57;;;0.93;;
51612;SDS011;37694;51.748;14.326;2023-01-28T12:10:53;3.30;;;1.05;;
51612;SDS011;37694;51.748;14.326;2023-01-28T12:16:24;3.45;;;0.80;;
51612;SDS011;37694;51.748;14.326;2023-01-28T12:19:02;0.80;;;0.80;;
51612;SDS011;37694;51.748;14.326;2023-01-28T12:35:58;0.73;;;0.70;;
51612;SDS011;37694;51.748;14.326;2023-01-28T12:41:09;1.10;;;0.98;;
51612;SDS011;37694;51.748;14.326;2023-01-28T12:43:50;10.30;;;1.33;;
51612;SDS011;37694;51.748;14.326;2023-01-28T12:49:15;4.30;;;1.17;;
51612;SDS011;37694;51.748;14.326;2023-01-28T12:54:17;4.18;;;0.70;;
51612;SDS011;37694;51.748;14.326;2023-01-28T12:56:53;5.78;;;0.63;;
51612;SDS011;37694;51.748;14.326;2023-01-28T13:01:56;3.85;;;0.65;;
51612;SDS011;37694;51.748;14.326;2023-01-28T13:07:17;0.60;;;0.60;;
51612;SDS011;37694;51.748;14.326;2023-01-28T13:09:59;5.82;;;0.80;;
51612;SDS011;37694;51.748;14.326;2023-01-28T13:12:35;8.82;;;0.80;;
51612;SDS011;37694;51.748;14.326;2023-01-28T13:15:04;5.95;;;1.27;;
51612;SDS011;37694;51.748;14.326;2023-01-28T13:17:35;11.93;;;1.00;;
51612;SDS011;37694;51.748;14.326;2023-01-28T13:20:01;2.65;;;0.80;;
51612;SDS011;37694;51.748;14.326;2023-01-28T13:22:39;2.58;;;1.00;;
51612;SDS011;37694;51.748;14.326;2023-01-28T13:25:11;1.50;;;0.80;;
51612;SDS011;37694;51.748;14.326;2023-01-28T13:28:45;2.58;;;0.90;;
51612;SDS011;37694;51.748;14.326;2023-01-28T13:30:50;5.70;;;0.98;;
51612;SDS011;37694;51.748;14.326;2023-01-28T13:33:28;3.15;;;1.30;;
51612;SDS011;37694;51.748;14.326;2023-01-28T13:36:00;9.65;;;1.08;;
51612;SDS011;37694;51.748;14.326;2023-01-28T13:38:34;7.75;;;0.93;;
51612;SDS011;37694;51.748;14.326;2023-01-28T13:41:01;1.70;;;0.80;;
51612;SDS011;37694;51.748;14.326;2023-01-28T13:46:03;3.08;;;0.70;;
51612;SDS011;37694;51.748;14.326;2023-01-28T13:51:57;6.43;;;0.80;;
51612;SDS011;37694;51.748;14.326;2023-01-28T13:56:30;11.00;;;0.80;;
51612;SDS011;37694;51.748;14.326;2023-01-28T13:59:34;1.80;;;0.98;;
51612;SDS011;37694;51.748;14.326;2023-01-28T14:18:43;2.38;;;1.00;;
51612;SDS011;37694;51.748;14.326;2023-01-28T14:21:10;3.97;;;1.42;;
51612;SDS011;37694;51.748;14.326;2023-01-28T14:23:38;3.90;;;1.02;;
51612;SDS011;37694;51.748;14.326;2023-01-28T14:26:15;2.03;;;1.00;;
51612;SDS011;37694;51.748;14.326;2023-01-28T14:28:53;1.85;;;0.80;;
51612;SDS011;37694;51.748;14.326;2023-01-28T14:31:30;8.55;;;1.42;;
51612;SDS011;37694;51.748;14.326;2023-01-28T14:34:05;8.68;;;0.90;;
51612;SDS011;37694;51.748;14.326;2023-01-28T14:37:15;0.98;;;0.55;;
51612;SDS011;37694;51.748;14.326;2023-01-28T14:39:49;3.92;;;1.50;;
51612;SDS011;37694;51.748;14.326;2023-01-28T14:42:38;2.60;;;0.90;;
51612;SDS011;37694;51.748;14.326;2023-01-28T14:45:21;3.40;;;0.80;;
51612;SDS011;37694;51.748;14.326;2023-01-28T15:01:26;5.93;;;0.70;;
51612;SDS011;37694;51.748;14.326;2023-01-28T15:03:53;0.75;;;0.63;;
51612;SDS011;37694;51.748;14.326;2023-01-28T15:06:21;3.53;;;1.08;;
51612;SDS011;37694;51.748;14.326;2023-01-28T15:08:49;2.95;;;0.70;;
51612;SDS011;37694;51.748;14.326;2023-01-28T15:11:16;0.60;;;0.52;;
51612;SDS011;37694;51.748;14.326;2023-01-28T15:13:51;5.18;;;0.65;;
51612;SDS011;37694;51.748;14.326;2023-01-28T15:16:22;2.60;;;0.70;;
51612;SDS011;37694;51.748;14.326;2023-01-28T15:18:53;2.78;;;0.40;;
51612;SDS011;37694;51.748;14.326;2023-01-28T15:21:21;0.40;;;0.40;;
51612;SDS011;37694;51.748;14.326;2023-01-28T15:23:49;3.47;;;0.75;;
51612;SDS011;37694;51.748;14.326;2023-01-28T15:28:50;1.20;;;0.60;;
51612;SDS011;37694;51.748;14.326;2023-01-28T15:31:24;1.00;;;0.50;;
51612;SDS011;37694;51.748;14.326;2023-01-28T15:34:01;0.70;;;0.60;;
51612;SDS011;37694;51.748;14.326;2023-01-28T15:36:33;0.82;;;0.70;;
51612;SDS011;37694;51.748;14.326;2023-01-28T15:38:59;7.82;;;0.88;;
51612;SDS011;37694;51.748;14.326;2023-01-28T15:41:32;1.50;;;0.60;;
51612;SDS011;37694;51.748;14.326;2023-01-28T15:44:03;4.43;;;0.60;;
51612;SDS011;37694;51.748;14.326;2023-01-28T15:46:29;2.88;;;0.47;;
51612;SDS011;37694;51.748;14.326;2023-01-28T15:48:59;2.90;;;0.60;;
51612;SDS011;37694;51.748;14.326;2023-01-28T15:51:27;5.25;;;0.75;;
51612;SDS011;37694;51.748;14.326;2023-01-28T15:53:56;10.95;;;0.77;;
51612;SDS011;37694;51.748;14.326;2023-01-28T15:56:25;9.07;;;0.98;;
51612;SDS011;37694;51.748;14.326;2023-01-28T15:58:53;2.72;;;0.50;;
51612;SDS011;37694;51.748;14.326;2023-01-28T16:01:20;4.90;;;0.80;;
51612;SDS011;37694;51.748;14.326;2023-01-28T16:04:00;9.43;;;1.08;;
51612;SDS011;37694;51.748;14.326;2023-01-28T16:06:34;5.88;;;0.77;;
51612;SDS011;37694;51.748;14.326;2023-01-28T16:09:05;5.38;;;0.70;;
51612;SDS011;37694;51.748;14.326;2023-01-28T16:11:41;2.58;;;0.73;;
51612;SDS011;37694;51.748;14.326;2023-01-28T16:14:25;13.15;;;1.52;;
51612;SDS011;37694;51.748;14.326;2023-01-28T16:16:53;3.58;;;0.93;;
51612;SDS011;37694;51.748;14.326;2023-01-28T16:22:33;5.13;;;0.80;;
51612;SDS011;37694;51.748;14.326;2023-01-28T16:25:02;4.78;;;0.60;;
51612;SDS011;37694;51.748;14.326;2023-01-28T16:27:47;2.53;;;0.73;;
51612;SDS011;37694;51.748;14.326;2023-01-28T16:30:13;5.38;;;0.88;;
51612;SDS011;37694;51.748;14.326;2023-01-28T16:32:40;6.15;;;1.10;;
51612;SDS011;37694;51.748;14.326;2023-01-28T16:38:07;2.25;;;0.82;;
51612;SDS011;37694;51.748;14.326;2023-01-28T16:40:33;2.00;;;0.80;;
51612;SDS011;37694;51.748;14.326;2023-01-28T16:43:02;8.48;;;0.63;;
51612;SDS011;37694;51.748;14.326;2023-01-28T16:45:28;4.45;;;0.80;;
51612;SDS011;37694;51.748;14.326;2023-01-28T16:47:53;6.88;;;0.65;;
51612;SDS011;37694;51.748;14.326;2023-01-28T16:50:20;4.75;;;0.75;;
51612;SDS011;37694;51.748;14.326;2023-01-28T16:52:47;1.75;;;0.98;;
51612;SDS011;37694;51.748;14.326;2023-01-28T16:55:19;0.77;;;0.77;;
51612;SDS011;37694;51.748;14.326;2023-01-28T16:57:46;3.95;;;0.63;;
51612;SDS011;37694;51.748;14.326;2023-01-28T17:00:20;2.40;;;0.60;;
51612;SDS011;37694;51.748;14.326;2023-01-28T17:02:48;3.97;;;0.85;;
51612;SDS011;37694;51.748;14.326;2023-01-28T17:05:14;1.27;;;0.60;;
51612;SDS011;37694;51.748;14.326;2023-01-28T17:07:40;5.65;;;0.70;;
51612;SDS011;37694;51.748;14.326;2023-01-28T17:10:07;4.85;;;0.98;;
51612;SDS011;37694;51.748;14.326;2023-01-28T17:12:33;2.72;;;0.80;;
51612;SDS011;37694;51.748;14.326;2023-01-28T17:14:59;3.65;;;0.77;;
51612;SDS011;37694;51.748;14.326;2023-01-28T17:17:25;9.60;;;0.75;;